Rogersville, Pennsylvania
Current Conditions -  °F | °C
As of 7:15 PM on Sunday 25 Jan 2015 (Local Time) from KAFJ Reporting Station
Overcast Overcast  
Wind Chill: 27°   Ceiling: 400
Heat Index: 32°   Visibility: 1.7mi
Dew Point: 30°   Wind: 5mph
Humidity: 93%   Direction: 40°NE
Pressure: 29.79"   Gusts: NA
Location:  39.88°N, 80.27°W
Report Text: KAFJ 260015Z AUTO 04004KT 1 3/4SM OVC004 00/M01 A2979 RMK AO1
Loading
Personal Weather Stations






























Interactive Weather Map New forecast layout! Learn more

10-Day Weather Forecast

Advertisements
Track Severe Weather on mobile